Burley, WA (98322)

8:31 PM PDT on April 29, 2017 (GMT -0700)
Burly Glenwood | | Change Station

Elev 354 ft 47.43 °N, 122.65 °W | Updated 1 second ago

Rain
Rain
44.2 °F
Feels Like 42 °F
N
4.0
Wind Variable Wind from SW
Gusts 4.7 mph

Today
High -- | Low -- °F
--% Chance of Precip.
Yesterday
High -- | Low -- °F
Precip. -- in
Pressure 30.11 in
Visibility 9.0 miles
Clouds Mostly Cloudy 2300 ft
Overcast 3600 ft
Windchill 42 °F
Dew Point 42 °F
Humidity 91%
Rainfall 0.13 in
Snow Depth Not available.
5:56 AM 8:19 PM
Waxing Crescent, 19% visible
SPECI KPWT 300326Z AUTO 21011KT 9SM -RA BKN023 OVC036 07/06 A3011 RMK AO2 P0001
Pressure 30.11 in
Visibility 9.0 miles
Clouds Mostly Cloudy 2300 ft
Overcast 3600 ft
Windchill 42 °F
Dew Point 42 °F
Humidity 91%
Rainfall 0.13 in
Snow Depth Not available.
5:56 AM 8:19 PM
Waxing Crescent, 19% visible
SPECI KPWT 300326Z AUTO 21011KT 9SM -RA BKN023 OVC036 07/06 A3011 RMK AO2 P0001

Get Severe Weather Alerts

Thanks for signing up!

Be on the lookout for a verification email in your inbox.

You'll start receiving the daily forecast at 8 AM.

×

10-Day Weather Forecast

Almanac

Astronomy

Apr. 29, 2017 Rise Set
Actual Time
Civil Twilight
Nautical Twilight
Astronomical Twilight
Moon
Length of Visible Light
Length of Day
Tomorrow will be .
, % of the Moon is Illuminated

Today's Extremes

State Highs State Lows

Community

WunderPhotos

WunderBlog® & News

Nearby

Air Quality

  Air Quality AQ Index Pollutant
Not available.

Snow Depth

Station Depth Elevation

Earthquake Activity

City Distance Mag. Time & Date
Minimum magnitude displayed is 2.5.

Coastal Water Temperatures

Place Temperature

Stations

Nearby Weather Stations

Station Location Temp. Windchill Dew Point Humidity Wind Precip. Elev Updated Type
                   

Watches & Warnings

There are currently no watches in effect.